Enid, OK (73701)

1:29 PM CDT on July 29, 2016 (GMT -0500)
Willow Run | | Change Station

Elev 1268 ft 36.42 °N, 97.90 °W | Updated 9 seconds ago

Mostly Cloudy
Mostly Cloudy
78.1 °F
Feels Like 80 °F
N
2.7
Wind Variable Wind from SSE
Gusts 4.7 mph

Today
High -- | Low -- °F
--% Chance of Precip.
Yesterday
High -- | Low -- °F
Precip. -- in
Pressure 30.00 in
Visibility 10.0 miles
Clouds Few 3000 ft
Few 8000 ft
Scattered Clouds 13000 ft
Mostly Cloudy 16000 ft
Heat Index 80 °F
Dew Point 67 °F
Humidity 68%
Rainfall 1.14 in
Snow Depth Not available.
6:36 AM 8:39 PM
Waning Crescent, 20% visible
METAR KEND 291755Z 34002KT 10SM FEW030 FEW080 SCT130 BKN160 24/20 A3003 RMK AO2A SLP159 60020 55004
Pressure 30.00 in
Visibility 10.0 miles
Clouds Few 3000 ft
Few 8000 ft
Scattered Clouds 13000 ft
Mostly Cloudy 16000 ft
Heat Index 80 °F
Dew Point 67 °F
Humidity 68%
Rainfall 1.14 in
Snow Depth Not available.
6:36 AM 8:39 PM
Waning Crescent, 20% visible
METAR KEND 291755Z 34002KT 10SM FEW030 FEW080 SCT130 BKN160 24/20 A3003 RMK AO2A SLP159 60020 55004

10-Day Weather Forecast

Almanac

Astronomy

Jul. 29, 2016 Rise Set
Actual Time
Civil Twilight
Nautical Twilight
Astronomical Twilight
Moon
Length of Visible Light
Length of Day
Tomorrow will be .
, % of the Moon is Illuminated

Today's Extremes

State Highs State Lows

Community

WunderPhotos

Upload Photos

1,928,392 photos uploaded!

WunderBlog® & News

Nearby

Air Quality

  Air Quality AQ Index Pollutant
Not available.

Snow Depth

Station Depth Elevation

Earthquake Activity

City Distance Mag. Time & Date
Minimum magnitude displayed is 2.5.

Coastal Water Temperatures

Place Temperature

Stations

Nearby Weather Stations

Station Location Temp. Windchill Dew Point Humidity Wind Precip. Elev Updated Type
                   

Watches & Warnings

There are currently no watches in effect.